Loleta, California
Current Conditions -  °F | °C
As of 10:30 AM on Saturday 25 Oct 2014 (Local Time) from KFOT Reporting Station
Overcast Overcast  
Wind Chill: 63°   Ceiling: 3300
Heat Index: 63°   Visibility: 8mi
Dew Point: 57°   Wind: 13mph
Humidity: 82%   Direction: 210°SSW
Pressure: 29.75"   Gusts: 26mph
Location:  40.64°N, 124.23°W
Report Text: KFOT 251730Z AUTO 21011G23KT 8SM SCT025 BKN033 OVC044 17/14 A2975 RMK AO1
Loading
Personal Weather Stations






























Interactive Weather Map New forecast layout! Learn more

10-Day Weather Forecast

Advertisements
Track Severe Weather on mobile